sensor_id;sensor_type;location;lat;lon;timestamp;temperature;humidity
16503;DHT22;53067;48.114;11.694;2022-09-09T00:04:13;18.00;65.60
16503;DHT22;53067;48.114;11.694;2022-09-09T00:09:39;17.90;65.80
16503;DHT22;53067;48.114;11.694;2022-09-09T00:12:15;17.80;65.90
16503;DHT22;53067;48.114;11.694;2022-09-09T00:14:53;17.80;66.40
16503;DHT22;53067;48.114;11.694;2022-09-09T00:17:47;17.80;66.50
16503;DHT22;53067;48.114;11.694;2022-09-09T00:20:19;17.70;66.60
16503;DHT22;53067;48.114;11.694;2022-09-09T00:23:01;17.70;66.80
16503;DHT22;53067;48.114;11.694;2022-09-09T00:28:07;17.50;67.10
16503;DHT22;53067;48.114;11.694;2022-09-09T00:30:34;17.50;67.30
16503;DHT22;53067;48.114;11.694;2022-09-09T00:33:10;17.50;67.20
16503;DHT22;53067;48.114;11.694;2022-09-09T00:35:47;17.50;67.30
16503;DHT22;53067;48.114;11.694;2022-09-09T00:38:19;17.50;67.50
16503;DHT22;53067;48.114;11.694;2022-09-09T00:43:36;17.50;67.30
16503;DHT22;53067;48.114;11.694;2022-09-09T00:46:32;17.50;67.30
16503;DHT22;53067;48.114;11.694;2022-09-09T00:57:32;17.40;67.90
16503;DHT22;53067;48.114;11.694;2022-09-09T01:00:23;17.40;67.80
16503;DHT22;53067;48.114;11.694;2022-09-09T01:08:24;17.40;68.10
16503;DHT22;53067;48.114;11.694;2022-09-09T01:10:54;17.40;68.10
16503;DHT22;53067;48.114;11.694;2022-09-09T01:13:27;17.40;68.40
16503;DHT22;53067;48.114;11.694;2022-09-09T01:15:58;17.50;68.50
16503;DHT22;53067;48.114;11.694;2022-09-09T01:18:38;17.50;68.50
16503;DHT22;53067;48.114;11.694;2022-09-09T01:26:34;17.60;68.10
16503;DHT22;53067;48.114;11.694;2022-09-09T01:29:02;17.50;68.10
16503;DHT22;53067;48.114;11.694;2022-09-09T01:31:37;17.60;68.10
16503;DHT22;53067;48.114;11.694;2022-09-09T01:34:00;17.60;68.00
16503;DHT22;53067;48.114;11.694;2022-09-09T01:36:38;17.60;68.00
16503;DHT22;53067;48.114;11.694;2022-09-09T01:39:05;17.60;68.00
16503;DHT22;53067;48.114;11.694;2022-09-09T01:41:32;17.60;68.00
16503;DHT22;53067;48.114;11.694;2022-09-09T01:44:00;17.60;68.20
16503;DHT22;53067;48.114;11.694;2022-09-09T01:46:28;17.70;68.60
16503;DHT22;53067;48.114;11.694;2022-09-09T01:48:56;17.60;68.90
16503;DHT22;53067;48.114;11.694;2022-09-09T01:51:24;17.70;69.10
16503;DHT22;53067;48.114;11.694;2022-09-09T01:53:52;17.70;69.60
16503;DHT22;53067;48.114;11.694;2022-09-09T01:56:24;17.70;69.80
16503;DHT22;53067;48.114;11.694;2022-09-09T01:59:12;17.60;69.70
16503;DHT22;53067;48.114;11.694;2022-09-09T02:01:47;17.70;70.10
16503;DHT22;53067;48.114;11.694;2022-09-09T02:04:30;17.70;70.10
16503;DHT22;53067;48.114;11.694;2022-09-09T02:06:48;17.60;70.00
16503;DHT22;53067;48.114;11.694;2022-09-09T02:09:19;17.60;70.20
16503;DHT22;53067;48.114;11.694;2022-09-09T02:11:49;17.70;70.20
16503;DHT22;53067;48.114;11.694;2022-09-09T02:14:24;17.70;70.40
16503;DHT22;53067;48.114;11.694;2022-09-09T02:16:55;17.70;70.40
16503;DHT22;53067;48.114;11.694;2022-09-09T02:19:29;17.70;70.40
16503;DHT22;53067;48.114;11.694;2022-09-09T02:21:55;17.70;70.40
16503;DHT22;53067;48.114;11.694;2022-09-09T02:24:25;17.70;70.40
16503;DHT22;53067;48.114;11.694;2022-09-09T02:26:55;17.70;70.60
16503;DHT22;53067;48.114;11.694;2022-09-09T02:29:30;17.70;70.60
16503;DHT22;53067;48.114;11.694;2022-09-09T02:32:05;17.80;70.60
16503;DHT22;53067;48.114;11.694;2022-09-09T02:34:35;17.70;70.70
16503;DHT22;53067;48.114;11.694;2022-09-09T02:37:03;17.70;70.90
16503;DHT22;53067;48.114;11.694;2022-09-09T02:39:32;17.70;71.30
16503;DHT22;53067;48.114;11.694;2022-09-09T02:42:00;17.70;71.30
16503;DHT22;53067;48.114;11.694;2022-09-09T02:44:29;17.70;71.20
16503;DHT22;53067;48.114;11.694;2022-09-09T02:47:10;17.70;71.30
16503;DHT22;53067;48.114;11.694;2022-09-09T02:49:40;17.70;71.30
16503;DHT22;53067;48.114;11.694;2022-09-09T02:52:15;17.70;71.30
16503;DHT22;53067;48.114;11.694;2022-09-09T02:54:44;17.70;71.90
16503;DHT22;53067;48.114;11.694;2022-09-09T02:57:25;17.70;71.10
16503;DHT22;53067;48.114;11.694;2022-09-09T02:59:49;17.70;71.00
16503;DHT22;53067;48.114;11.694;2022-09-09T03:02:18;17.70;70.90
16503;DHT22;53067;48.114;11.694;2022-09-09T03:04:46;17.70;70.80
16503;DHT22;53067;48.114;11.694;2022-09-09T03:07:15;17.70;70.80
16503;DHT22;53067;48.114;11.694;2022-09-09T03:09:43;17.70;70.90
16503;DHT22;53067;48.114;11.694;2022-09-09T03:12:12;17.70;70.60
16503;DHT22;53067;48.114;11.694;2022-09-09T03:14:39;17.70;70.40
16503;DHT22;53067;48.114;11.694;2022-09-09T03:17:07;17.70;70.30
16503;DHT22;53067;48.114;11.694;2022-09-09T03:19:35;17.80;70.30
16503;DHT22;53067;48.114;11.694;2022-09-09T03:22:04;17.80;70.30
16503;DHT22;53067;48.114;11.694;2022-09-09T03:24:31;17.80;70.50
16503;DHT22;53067;48.114;11.694;2022-09-09T03:27:00;17.80;70.30
16503;DHT22;53067;48.114;11.694;2022-09-09T03:29:27;17.80;70.10
16503;DHT22;53067;48.114;11.694;2022-09-09T03:31:55;17.70;70.10
16503;DHT22;53067;48.114;11.694;2022-09-09T03:34:22;17.80;70.20
16503;DHT22;53067;48.114;11.694;2022-09-09T03:36:50;17.80;70.30
16503;DHT22;53067;48.114;11.694;2022-09-09T03:39:18;17.80;70.10
16503;DHT22;53067;48.114;11.694;2022-09-09T03:41:45;17.80;70.10
16503;DHT22;53067;48.114;11.694;2022-09-09T03:44:15;17.80;70.00
16503;DHT22;53067;48.114;11.694;2022-09-09T03:46:43;17.80;70.00
16503;DHT22;53067;48.114;11.694;2022-09-09T03:49:10;17.80;70.00
16503;DHT22;53067;48.114;11.694;2022-09-09T03:51:38;17.80;70.10
16503;DHT22;53067;48.114;11.694;2022-09-09T03:54:06;17.80;70.20
16503;DHT22;53067;48.114;11.694;2022-09-09T03:56:35;17.80;70.10
16503;DHT22;53067;48.114;11.694;2022-09-09T03:59:03;17.70;70.20
16503;DHT22;53067;48.114;11.694;2022-09-09T04:01:31;17.70;70.00
16503;DHT22;53067;48.114;11.694;2022-09-09T04:03:58;17.70;70.30
16503;DHT22;53067;48.114;11.694;2022-09-09T04:06:26;17.60;70.30
16503;DHT22;53067;48.114;11.694;2022-09-09T04:08:54;17.70;70.50
16503;DHT22;53067;48.114;11.694;2022-09-09T04:11:22;17.60;70.60
16503;DHT22;53067;48.114;11.694;2022-09-09T04:13:49;17.60;70.60
16503;DHT22;53067;48.114;11.694;2022-09-09T04:16:17;17.60;70.60
16503;DHT22;53067;48.114;11.694;2022-09-09T04:18:45;17.60;70.80
16503;DHT22;53067;48.114;11.694;2022-09-09T04:21:13;17.60;70.80
16503;DHT22;53067;48.114;11.694;2022-09-09T04:23:42;17.60;71.10
16503;DHT22;53067;48.114;11.694;2022-09-09T04:26:09;17.60;71.10
16503;DHT22;53067;48.114;11.694;2022-09-09T04:28:37;17.60;71.10
16503;DHT22;53067;48.114;11.694;2022-09-09T04:31:07;17.60;71.10
16503;DHT22;53067;48.114;11.694;2022-09-09T04:33:36;17.60;71.20
16503;DHT22;53067;48.114;11.694;2022-09-09T04:36:05;17.60;71.10
16503;DHT22;53067;48.114;11.694;2022-09-09T04:38:33;17.50;71.20
16503;DHT22;53067;48.114;11.694;2022-09-09T04:41:00;17.50;71.10
16503;DHT22;53067;48.114;11.694;2022-09-09T04:43:28;17.50;71.30
16503;DHT22;53067;48.114;11.694;2022-09-09T04:45:57;17.50;71.20
16503;DHT22;53067;48.114;11.694;2022-09-09T04:48:26;17.50;71.30
16503;DHT22;53067;48.114;11.694;2022-09-09T04:51:05;17.50;71.30
16503;DHT22;53067;48.114;11.694;2022-09-09T04:53:33;17.40;71.40
16503;DHT22;53067;48.114;11.694;2022-09-09T04:56:12;17.40;71.50
16503;DHT22;53067;48.114;11.694;2022-09-09T04:58:41;17.40;72.50
16503;DHT22;53067;48.114;11.694;2022-09-09T05:01:11;17.40;71.70
16503;DHT22;53067;48.114;11.694;2022-09-09T05:03:39;17.30;71.70
16503;DHT22;53067;48.114;11.694;2022-09-09T05:06:11;17.30;72.00
16503;DHT22;53067;48.114;11.694;2022-09-09T05:08:41;17.30;72.00
16503;DHT22;53067;48.114;11.694;2022-09-09T05:11:24;17.30;72.00
16503;DHT22;53067;48.114;11.694;2022-09-09T05:13:47;17.30;71.80
16503;DHT22;53067;48.114;11.694;2022-09-09T05:16:17;17.30;71.80
16503;DHT22;53067;48.114;11.694;2022-09-09T05:18:45;17.30;71.90
16503;DHT22;53067;48.114;11.694;2022-09-09T05:21:14;17.30;71.80
16503;DHT22;53067;48.114;11.694;2022-09-09T05:23:42;17.30;71.70
16503;DHT22;53067;48.114;11.694;2022-09-09T05:26:12;17.40;71.80
16503;DHT22;53067;48.114;11.694;2022-09-09T05:28:40;17.40;71.70
16503;DHT22;53067;48.114;11.694;2022-09-09T05:31:09;17.50;71.70
16503;DHT22;53067;48.114;11.694;2022-09-09T05:33:39;17.50;71.40
16503;DHT22;53067;48.114;11.694;2022-09-09T05:36:16;17.50;71.50
16503;DHT22;53067;48.114;11.694;2022-09-09T05:38:40;17.60;71.40
16503;DHT22;53067;48.114;11.694;2022-09-09T05:41:09;17.60;71.40
16503;DHT22;53067;48.114;11.694;2022-09-09T05:43:39;17.60;71.50
16503;DHT22;53067;48.114;11.694;2022-09-09T05:46:11;17.60;71.40
16503;DHT22;53067;48.114;11.694;2022-09-09T05:48:41;17.60;71.40
16503;DHT22;53067;48.114;11.694;2022-09-09T05:51:10;17.60;71.30
16503;DHT22;53067;48.114;11.694;2022-09-09T05:53:43;17.60;71.20
16503;DHT22;53067;48.114;11.694;2022-09-09T05:56:13;17.60;71.20
16503;DHT22;53067;48.114;11.694;2022-09-09T05:58:41;17.60;71.30
16503;DHT22;53067;48.114;11.694;2022-09-09T06:01:16;17.60;71.40
16503;DHT22;53067;48.114;11.694;2022-09-09T06:03:45;17.70;71.50
16503;DHT22;53067;48.114;11.694;2022-09-09T06:06:16;17.70;71.50
16503;DHT22;53067;48.114;11.694;2022-09-09T06:08:44;17.70;71.40
16503;DHT22;53067;48.114;11.694;2022-09-09T06:11:15;17.70;71.30
16503;DHT22;53067;48.114;11.694;2022-09-09T06:13:43;17.80;71.30
16503;DHT22;53067;48.114;11.694;2022-09-09T06:16:13;17.80;71.10
16503;DHT22;53067;48.114;11.694;2022-09-09T06:18:41;17.90;71.00
16503;DHT22;53067;48.114;11.694;2022-09-09T06:21:18;17.90;70.80
16503;DHT22;53067;48.114;11.694;2022-09-09T06:23:47;17.90;70.80
16503;DHT22;53067;48.114;11.694;2022-09-09T06:26:19;18.00;71.50
16503;DHT22;53067;48.114;11.694;2022-09-09T06:28:46;18.00;70.50
16503;DHT22;53067;48.114;11.694;2022-09-09T06:31:16;18.00;70.40
16503;DHT22;53067;48.114;11.694;2022-09-09T06:33:46;18.00;70.30
16503;DHT22;53067;48.114;11.694;2022-09-09T06:36:19;18.10;70.10
16503;DHT22;53067;48.114;11.694;2022-09-09T06:38:47;18.00;70.10
16503;DHT22;53067;48.114;11.694;2022-09-09T06:41:17;18.10;70.00
16503;DHT22;53067;48.114;11.694;2022-09-09T06:43:46;18.10;70.00
16503;DHT22;53067;48.114;11.694;2022-09-09T06:46:20;18.10;70.00
16503;DHT22;53067;48.114;11.694;2022-09-09T06:48:45;18.20;69.90
16503;DHT22;53067;48.114;11.694;2022-09-09T06:51:18;18.20;69.90
16503;DHT22;53067;48.114;11.694;2022-09-09T06:53:50;18.20;70.00
16503;DHT22;53067;48.114;11.694;2022-09-09T06:56:21;18.20;71.00
16503;DHT22;53067;48.114;11.694;2022-09-09T06:58:50;18.20;70.40
16503;DHT22;53067;48.114;11.694;2022-09-09T07:01:26;18.20;70.60
16503;DHT22;53067;48.114;11.694;2022-09-09T07:03:56;18.20;70.60
16503;DHT22;53067;48.114;11.694;2022-09-09T07:06:27;18.20;71.00
16503;DHT22;53067;48.114;11.694;2022-09-09T07:08:56;18.20;71.30
16503;DHT22;53067;48.114;11.694;2022-09-09T07:11:27;18.20;71.60
16503;DHT22;53067;48.114;11.694;2022-09-09T07:13:56;18.20;71.60
16503;DHT22;53067;48.114;11.694;2022-09-09T07:16:26;18.20;71.90
16503;DHT22;53067;48.114;11.694;2022-09-09T07:18:54;18.20;71.70
16503;DHT22;53067;48.114;11.694;2022-09-09T07:21:26;18.30;71.50
16503;DHT22;53067;48.114;11.694;2022-09-09T07:23:54;18.30;71.40
16503;DHT22;53067;48.114;11.694;2022-09-09T07:26:27;18.30;72.30
16503;DHT22;53067;48.114;11.694;2022-09-09T07:28:55;18.30;71.40
16503;DHT22;53067;48.114;11.694;2022-09-09T07:31:29;18.30;71.70
16503;DHT22;53067;48.114;11.694;2022-09-09T07:33:57;18.40;71.60
16503;DHT22;53067;48.114;11.694;2022-09-09T07:36:29;18.40;71.50
16503;DHT22;53067;48.114;11.694;2022-09-09T07:38:59;18.40;71.50
16503;DHT22;53067;48.114;11.694;2022-09-09T07:44:09;18.20;71.70
16503;DHT22;53067;48.114;11.694;2022-09-09T07:46:37;18.20;71.80
16503;DHT22;53067;48.114;11.694;2022-09-09T07:49:08;18.10;71.40
16503;DHT22;53067;48.114;11.694;2022-09-09T07:51:38;18.20;71.70
16503;DHT22;53067;48.114;11.694;2022-09-09T07:54:10;18.20;71.50
16503;DHT22;53067;48.114;11.694;2022-09-09T07:56:38;18.30;71.30
16503;DHT22;53067;48.114;11.694;2022-09-09T07:59:07;18.40;71.10
16503;DHT22;53067;48.114;11.694;2022-09-09T08:01:46;18.50;71.70
16503;DHT22;53067;48.114;11.694;2022-09-09T08:04:13;18.50;71.00
16503;DHT22;53067;48.114;11.694;2022-09-09T08:06:38;18.60;70.90
16503;DHT22;53067;48.114;11.694;2022-09-09T08:09:07;18.70;70.70
16503;DHT22;53067;48.114;11.694;2022-09-09T08:11:36;18.80;70.40
16503;DHT22;53067;48.114;11.694;2022-09-09T08:14:05;18.80;70.20
16503;DHT22;53067;48.114;11.694;2022-09-09T08:16:36;18.90;70.10
16503;DHT22;53067;48.114;11.694;2022-09-09T08:19:04;18.90;70.50
16503;DHT22;53067;48.114;11.694;2022-09-09T08:21:36;19.00;69.60
16503;DHT22;53067;48.114;11.694;2022-09-09T08:24:05;19.10;69.40
16503;DHT22;53067;48.114;11.694;2022-09-09T08:26:36;19.00;69.20
16503;DHT22;53067;48.114;11.694;2022-09-09T08:29:05;19.10;69.00
16503;DHT22;53067;48.114;11.694;2022-09-09T08:31:45;19.10;68.70
16503;DHT22;53067;48.114;11.694;2022-09-09T08:34:13;19.10;68.90
16503;DHT22;53067;48.114;11.694;2022-09-09T08:36:43;19.10;68.60
16503;DHT22;53067;48.114;11.694;2022-09-09T08:39:16;19.10;68.90
16503;DHT22;53067;48.114;11.694;2022-09-09T08:41:55;19.00;69.10
16503;DHT22;53067;48.114;11.694;2022-09-09T08:44:23;19.10;70.20
16503;DHT22;53067;48.114;11.694;2022-09-09T08:52:28;19.10;69.30
16503;DHT22;53067;48.114;11.694;2022-09-09T08:57:34;19.20;69.30
16503;DHT22;53067;48.114;11.694;2022-09-09T09:00:02;19.30;69.40
16503;DHT22;53067;48.114;11.694;2022-09-09T09:05:23;19.40;68.90
16503;DHT22;53067;48.114;11.694;2022-09-09T09:10:50;19.40;69.00
16503;DHT22;53067;48.114;11.694;2022-09-09T09:15:57;19.40;69.40
16503;DHT22;53067;48.114;11.694;2022-09-09T09:18:24;19.30;69.70
16503;DHT22;53067;48.114;11.694;2022-09-09T09:21:06;19.30;70.30
16503;DHT22;53067;48.114;11.694;2022-09-09T09:23:45;19.30;70.00
16503;DHT22;53067;48.114;11.694;2022-09-09T09:26:10;19.30;69.80
16503;DHT22;53067;48.114;11.694;2022-09-09T09:28:40;19.40;70.10
16503;DHT22;53067;48.114;11.694;2022-09-09T09:31:09;19.40;70.20
16503;DHT22;53067;48.114;11.694;2022-09-09T09:33:48;19.40;69.90
16503;DHT22;53067;48.114;11.694;2022-09-09T09:36:17;19.40;70.00
16503;DHT22;53067;48.114;11.694;2022-09-09T09:38:59;19.40;69.70
16503;DHT22;53067;48.114;11.694;2022-09-09T09:41:41;19.40;69.80
16503;DHT22;53067;48.114;11.694;2022-09-09T09:44:24;19.40;69.80
16503;DHT22;53067;48.114;11.694;2022-09-09T09:46:52;19.40;69.60
16503;DHT22;53067;48.114;11.694;2022-09-09T09:49:20;19.40;69.60
16503;DHT22;53067;48.114;11.694;2022-09-09T09:51:48;19.40;69.70
16503;DHT22;53067;48.114;11.694;2022-09-09T09:54:27;19.50;69.60
16503;DHT22;53067;48.114;11.694;2022-09-09T09:56:48;19.50;68.90
16503;DHT22;53067;48.114;11.694;2022-09-09T10:01:52;19.50;68.40
16503;DHT22;53067;48.114;11.694;2022-09-09T10:04:22;19.60;68.00
16503;DHT22;53067;48.114;11.694;2022-09-09T10:06:52;19.60;67.80
16503;DHT22;53067;48.114;11.694;2022-09-09T10:09:25;19.60;67.80
16503;DHT22;53067;48.114;11.694;2022-09-09T10:12:00;19.70;67.90
16503;DHT22;53067;48.114;11.694;2022-09-09T10:17:12;19.80;67.60
16503;DHT22;53067;48.114;11.694;2022-09-09T10:19:39;19.80;67.50
16503;DHT22;53067;48.114;11.694;2022-09-09T10:22:25;19.80;66.80
16503;DHT22;53067;48.114;11.694;2022-09-09T10:25:30;19.80;66.70
16503;DHT22;53067;48.114;11.694;2022-09-09T10:33:50;19.80;66.30
16503;DHT22;53067;48.114;11.694;2022-09-09T10:36:19;19.70;66.30
16503;DHT22;53067;48.114;11.694;2022-09-09T10:38:47;19.70;66.20
16503;DHT22;53067;48.114;11.694;2022-09-09T10:41:40;19.70;66.20
16503;DHT22;53067;48.114;11.694;2022-09-09T10:44:18;19.70;66.30
16503;DHT22;53067;48.114;11.694;2022-09-09T10:55:16;19.80;66.00
16503;DHT22;53067;48.114;11.694;2022-09-09T10:57:45;19.80;65.60
16503;DHT22;53067;48.114;11.694;2022-09-09T11:00:23;19.90;65.30
16503;DHT22;53067;48.114;11.694;2022-09-09T11:03:04;20.00;65.00
16503;DHT22;53067;48.114;11.694;2022-09-09T11:06:45;20.10;64.40
16503;DHT22;53067;48.114;11.694;2022-09-09T11:08:25;20.20;64.00
16503;DHT22;53067;48.114;11.694;2022-09-09T11:11:02;20.30;63.60
16503;DHT22;53067;48.114;11.694;2022-09-09T11:13:55;20.30;63.00
16503;DHT22;53067;48.114;11.694;2022-09-09T11:19:04;20.40;62.80
16503;DHT22;53067;48.114;11.694;2022-09-09T11:21:37;20.40;63.10
16503;DHT22;53067;48.114;11.694;2022-09-09T11:24:06;20.40;63.10
16503;DHT22;53067;48.114;11.694;2022-09-09T11:26:41;20.40;62.90
16503;DHT22;53067;48.114;11.694;2022-09-09T11:40:25;20.50;62.40
16503;DHT22;53067;48.114;11.694;2022-09-09T11:43:05;20.60;62.00
16503;DHT22;53067;48.114;11.694;2022-09-09T11:45:34;20.60;61.80
16503;DHT22;53067;48.114;11.694;2022-09-09T11:48:04;20.60;61.70
16503;DHT22;53067;48.114;11.694;2022-09-09T11:50:35;20.70;61.30
16503;DHT22;53067;48.114;11.694;2022-09-09T11:55:42;20.80;61.40
16503;DHT22;53067;48.114;11.694;2022-09-09T12:00:46;21.00;60.20
16503;DHT22;53067;48.114;11.694;2022-09-09T12:03:48;21.00;60.20
16503;DHT22;53067;48.114;11.694;2022-09-09T12:06:33;21.00;60.20
16503;DHT22;53067;48.114;11.694;2022-09-09T12:09:23;21.00;59.80
16503;DHT22;53067;48.114;11.694;2022-09-09T12:11:51;21.10;60.10
16503;DHT22;53067;48.114;11.694;2022-09-09T12:14:43;21.10;59.60
16503;DHT22;53067;48.114;11.694;2022-09-09T12:19:43;21.20;59.50
16503;DHT22;53067;48.114;11.694;2022-09-09T12:25:26;21.10;58.10
16503;DHT22;53067;48.114;11.694;2022-09-09T12:28:01;21.00;58.40
16503;DHT22;53067;48.114;11.694;2022-09-09T12:33:33;21.00;58.40
16503;DHT22;53067;48.114;11.694;2022-09-09T12:35:57;21.00;59.10
16503;DHT22;53067;48.114;11.694;2022-09-09T12:38:34;21.00;58.90
16503;DHT22;53067;48.114;11.694;2022-09-09T12:41:05;21.10;58.50
16503;DHT22;53067;48.114;11.694;2022-09-09T12:43:33;21.20;58.00
16503;DHT22;53067;48.114;11.694;2022-09-09T12:46:07;21.20;57.80
16503;DHT22;53067;48.114;11.694;2022-09-09T12:48:36;21.30;58.30
16503;DHT22;53067;48.114;11.694;2022-09-09T12:51:01;21.30;58.80
16503;DHT22;53067;48.114;11.694;2022-09-09T12:53:37;21.50;58.70
16503;DHT22;53067;48.114;11.694;2022-09-09T12:56:08;21.60;58.70
16503;DHT22;53067;48.114;11.694;2022-09-09T12:58:38;21.70;58.50
16503;DHT22;53067;48.114;11.694;2022-09-09T13:01:17;21.80;58.90
16503;DHT22;53067;48.114;11.694;2022-09-09T13:03:41;22.00;57.70
16503;DHT22;53067;48.114;11.694;2022-09-09T13:06:18;22.10;57.60
16503;DHT22;53067;48.114;11.694;2022-09-09T13:08:43;22.20;56.50
16503;DHT22;53067;48.114;11.694;2022-09-09T13:11:16;22.20;56.20
16503;DHT22;53067;48.114;11.694;2022-09-09T13:13:50;22.20;55.70
16503;DHT22;53067;48.114;11.694;2022-09-09T13:16:30;22.20;55.70
16503;DHT22;53067;48.114;11.694;2022-09-09T13:18:56;22.20;56.50
16503;DHT22;53067;48.114;11.694;2022-09-09T13:21:37;22.20;56.40
16503;DHT22;53067;48.114;11.694;2022-09-09T13:24:21;22.20;56.30
16503;DHT22;53067;48.114;11.694;2022-09-09T13:26:36;22.20;56.70
16503;DHT22;53067;48.114;11.694;2022-09-09T13:29:16;22.30;56.20
16503;DHT22;53067;48.114;11.694;2022-09-09T13:31:44;22.30;55.60
16503;DHT22;53067;48.114;11.694;2022-09-09T13:34:34;22.20;55.30
16503;DHT22;53067;48.114;11.694;2022-09-09T13:36:46;22.20;55.70
16503;DHT22;53067;48.114;11.694;2022-09-09T13:39:16;22.10;56.10
16503;DHT22;53067;48.114;11.694;2022-09-09T13:41:46;22.10;56.00
16503;DHT22;53067;48.114;11.694;2022-09-09T13:44:24;22.00;55.90
16503;DHT22;53067;48.114;11.694;2022-09-09T13:47:17;21.90;55.60
16503;DHT22;53067;48.114;11.694;2022-09-09T13:49:35;21.70;55.60
16503;DHT22;53067;48.114;11.694;2022-09-09T13:52:08;21.60;55.80
16503;DHT22;53067;48.114;11.694;2022-09-09T13:54:53;21.50;56.40
16503;DHT22;53067;48.114;11.694;2022-09-09T13:57:23;21.40;56.50
16503;DHT22;53067;48.114;11.694;2022-09-09T13:59:53;21.30;56.90
16503;DHT22;53067;48.114;11.694;2022-09-09T14:02:24;21.20;57.20
16503;DHT22;53067;48.114;11.694;2022-09-09T14:04:51;21.20;57.60
16503;DHT22;53067;48.114;11.694;2022-09-09T14:07:21;21.10;58.10
16503;DHT22;53067;48.114;11.694;2022-09-09T14:09:49;21.00;58.60
16503;DHT22;53067;48.114;11.694;2022-09-09T14:12:18;20.90;58.70
16503;DHT22;53067;48.114;11.694;2022-09-09T14:14:46;20.90;58.90
16503;DHT22;53067;48.114;11.694;2022-09-09T14:17:14;20.90;59.40
16503;DHT22;53067;48.114;11.694;2022-09-09T14:19:44;20.90;59.70
16503;DHT22;53067;48.114;11.694;2022-09-09T14:22:12;20.90;59.50
16503;DHT22;53067;48.114;11.694;2022-09-09T14:24:39;20.90;59.90
16503;DHT22;53067;48.114;11.694;2022-09-09T14:27:07;20.90;60.00
16503;DHT22;53067;48.114;11.694;2022-09-09T14:29:35;20.90;60.40
16503;DHT22;53067;48.114;11.694;2022-09-09T14:32:02;20.90;60.20
16503;DHT22;53067;48.114;11.694;2022-09-09T14:34:30;20.90;60.10
16503;DHT22;53067;48.114;11.694;2022-09-09T14:36:59;20.90;59.60
16503;DHT22;53067;48.114;11.694;2022-09-09T14:39:27;20.90;59.60
16503;DHT22;53067;48.114;11.694;2022-09-09T14:41:54;20.80;59.60
16503;DHT22;53067;48.114;11.694;2022-09-09T14:44:22;20.90;59.40
16503;DHT22;53067;48.114;11.694;2022-09-09T14:46:50;20.80;59.30
16503;DHT22;53067;48.114;11.694;2022-09-09T14:49:17;20.80;58.10
16503;DHT22;53067;48.114;11.694;2022-09-09T14:51:45;20.80;58.00
16503;DHT22;53067;48.114;11.694;2022-09-09T14:54:12;20.80;58.10
16503;DHT22;53067;48.114;11.694;2022-09-09T14:56:41;20.80;58.10
16503;DHT22;53067;48.114;11.694;2022-09-09T14:59:08;20.90;58.00
16503;DHT22;53067;48.114;11.694;2022-09-09T15:01:36;20.90;57.70
16503;DHT22;53067;48.114;11.694;2022-09-09T15:04:05;20.90;57.70
16503;DHT22;53067;48.114;11.694;2022-09-09T15:06:35;20.80;57.60
16503;DHT22;53067;48.114;11.694;2022-09-09T15:09:04;20.80;57.30
16503;DHT22;53067;48.114;11.694;2022-09-09T15:11:34;20.80;57.30
16503;DHT22;53067;48.114;11.694;2022-09-09T15:14:07;20.80;57.30
16503;DHT22;53067;48.114;11.694;2022-09-09T15:16:36;20.80;57.60
16503;DHT22;53067;48.114;11.694;2022-09-09T15:19:04;20.90;57.90
16503;DHT22;53067;48.114;11.694;2022-09-09T15:21:34;20.80;58.10
16503;DHT22;53067;48.114;11.694;2022-09-09T15:24:02;20.80;58.60
16503;DHT22;53067;48.114;11.694;2022-09-09T15:26:30;20.80;58.50
16503;DHT22;53067;48.114;11.694;2022-09-09T15:28:58;20.80;58.60
16503;DHT22;53067;48.114;11.694;2022-09-09T15:31:29;20.80;58.30
16503;DHT22;53067;48.114;11.694;2022-09-09T15:33:59;20.80;58.50
16503;DHT22;53067;48.114;11.694;2022-09-09T15:36:38;20.80;58.40
16503;DHT22;53067;48.114;11.694;2022-09-09T15:39:13;20.70;58.20
16503;DHT22;53067;48.114;11.694;2022-09-09T15:41:39;20.70;58.20
16503;DHT22;53067;48.114;11.694;2022-09-09T15:44:07;20.60;58.20
16503;DHT22;53067;48.114;11.694;2022-09-09T15:46:39;20.60;57.90
16503;DHT22;53067;48.114;11.694;2022-09-09T15:49:12;20.60;58.20
16503;DHT22;53067;48.114;11.694;2022-09-09T15:51:42;20.60;58.60
16503;DHT22;53067;48.114;11.694;2022-09-09T15:54:13;20.60;58.90
16503;DHT22;53067;48.114;11.694;2022-09-09T15:56:41;20.60;59.30
16503;DHT22;53067;48.114;11.694;2022-09-09T15:59:09;20.50;59.70
16503;DHT22;53067;48.114;11.694;2022-09-09T16:01:38;20.50;60.00
16503;DHT22;53067;48.114;11.694;2022-09-09T16:04:07;20.50;60.70
16503;DHT22;53067;48.114;11.694;2022-09-09T16:06:36;20.50;60.80
16503;DHT22;53067;48.114;11.694;2022-09-09T16:09:05;20.50;61.40
16503;DHT22;53067;48.114;11.694;2022-09-09T16:11:35;20.50;59.80
16503;DHT22;53067;48.114;11.694;2022-09-09T16:14:04;20.50;59.80
16503;DHT22;53067;48.114;11.694;2022-09-09T16:16:33;20.50;59.90
16503;DHT22;53067;48.114;11.694;2022-09-09T16:19:04;20.50;59.60
16503;DHT22;53067;48.114;11.694;2022-09-09T16:21:35;20.50;59.30
16503;DHT22;53067;48.114;11.694;2022-09-09T16:24:04;20.40;59.30
16503;DHT22;53067;48.114;11.694;2022-09-09T16:26:33;20.40;59.10
16503;DHT22;53067;48.114;11.694;2022-09-09T16:29:02;20.40;59.00
16503;DHT22;53067;48.114;11.694;2022-09-09T16:31:30;20.40;58.70
16503;DHT22;53067;48.114;11.694;2022-09-09T16:34:01;20.40;58.40
16503;DHT22;53067;48.114;11.694;2022-09-09T16:36:31;20.30;58.30
16503;DHT22;53067;48.114;11.694;2022-09-09T16:39:03;20.30;58.30
16503;DHT22;53067;48.114;11.694;2022-09-09T16:41:32;20.40;58.20
16503;DHT22;53067;48.114;11.694;2022-09-09T16:44:02;20.40;57.60
16503;DHT22;53067;48.114;11.694;2022-09-09T16:46:31;20.40;57.60
16503;DHT22;53067;48.114;11.694;2022-09-09T16:49:01;20.40;57.50
16503;DHT22;53067;48.114;11.694;2022-09-09T16:51:31;20.40;57.30
16503;DHT22;53067;48.114;11.694;2022-09-09T16:54:01;20.50;57.50
16503;DHT22;53067;48.114;11.694;2022-09-09T16:56:31;20.50;57.20
16503;DHT22;53067;48.114;11.694;2022-09-09T16:59:05;20.50;56.90
16503;DHT22;53067;48.114;11.694;2022-09-09T17:01:35;20.40;56.80
16503;DHT22;53067;48.114;11.694;2022-09-09T17:04:13;20.40;56.90
16503;DHT22;53067;48.114;11.694;2022-09-09T17:06:45;20.30;57.00
16503;DHT22;53067;48.114;11.694;2022-09-09T17:09:12;20.20;56.90
16503;DHT22;53067;48.114;11.694;2022-09-09T17:11:41;20.20;57.00
16503;DHT22;53067;48.114;11.694;2022-09-09T17:14:11;20.20;57.00
16503;DHT22;53067;48.114;11.694;2022-09-09T17:16:38;20.20;57.10